createdAt,value
2016-06-07T00:00:55.197Z,1008.18
2016-06-07T00:01:55.216Z,1008.16
2016-06-07T00:02:55.250Z,1008.16
2016-06-07T00:03:55.282Z,1008.19
2016-06-07T00:04:55.333Z,1008.18
2016-06-07T00:05:55.382Z,1008.19
2016-06-07T00:06:55.416Z,1008.19
2016-06-07T00:07:55.465Z,1008.22
2016-06-07T00:08:55.499Z,1008.18
2016-06-07T00:09:55.534Z,1008.19
2016-06-07T00:10:55.583Z,1008.22
2016-06-07T00:11:55.618Z,1008.24
2016-06-07T00:12:55.667Z,1008.23
2016-06-07T00:13:55.700Z,1008.23
2016-06-07T00:14:55.750Z,1008.24
2016-06-07T00:15:55.784Z,1008.23
2016-06-07T00:16:55.834Z,1008.23
2016-06-07T00:17:55.867Z,1008.24
2016-06-07T00:18:55.917Z,1008.22
2016-06-07T00:19:55.951Z,1008.23
2016-06-07T00:20:56.110Z,1008.24
2016-06-07T00:21:56.035Z,1008.26
2016-06-07T00:22:56.115Z,1008.26
2016-06-07T00:23:56.117Z,1008.27
2016-06-07T00:24:56.167Z,1008.29
2016-06-07T00:25:56.202Z,1008.29
2016-06-07T00:26:56.250Z,1008.29
2016-06-07T00:27:56.286Z,1008.24
2016-06-07T00:28:56.336Z,1008.23
2016-06-07T00:29:56.369Z,1008.24
2016-06-07T00:30:56.402Z,1008.23
2016-06-07T00:31:56.452Z,1008.24
2016-06-07T00:32:56.502Z,1008.23
2016-06-07T00:33:56.567Z,1008.21
2016-06-07T00:34:56.569Z,1008.23
2016-06-07T00:35:56.619Z,1008.23
2016-06-07T00:36:56.652Z,1008.23
2016-06-07T00:37:56.703Z,1008.23
2016-06-07T00:38:56.737Z,1008.22
2016-06-07T00:39:56.785Z,1008.21
2016-06-07T00:40:56.820Z,1008.21
2016-06-07T00:41:56.870Z,1008.18
2016-06-07T00:42:56.904Z,1008.2
2016-06-07T00:43:56.953Z,1008.22
2016-06-07T00:44:57.003Z,1008.19
2016-06-07T00:45:57.037Z,1008.2
2016-06-07T00:46:57.071Z,1008.2
2016-06-07T00:47:57.120Z,1008.24
2016-06-07T00:48:57.170Z,1008.19
2016-06-07T00:49:57.203Z,1008.17
2016-06-07T00:50:57.253Z,1008.21
2016-06-07T00:51:57.272Z,1008.2
2016-06-07T00:52:57.321Z,1008.21
2016-06-07T00:53:57.355Z,1008.24
2016-06-07T00:54:57.405Z,1008.23
2016-06-07T00:55:57.454Z,1008.26
2016-06-07T00:56:57.489Z,1008.24
2016-06-07T00:57:57.538Z,1008.26
2016-06-07T00:58:57.572Z,1008.3
2016-06-07T00:59:57.653Z,1008.27
2016-06-07T01:00:57.655Z,1008.24
2016-06-07T01:01:57.689Z,1008.24
2016-06-07T01:02:57.739Z,1008.26
2016-06-07T01:03:57.804Z,1008.27
2016-06-07T01:04:57.822Z,1008.27
2016-06-07T01:05:57.855Z,1008.27
2016-06-07T01:06:57.905Z,1008.26
2016-06-07T01:07:57.971Z,1008.29
2016-06-07T01:08:57.989Z,1008.25
2016-06-07T01:09:58.024Z,1008.28
2016-06-07T01:10:58.057Z,1008.27
2016-06-07T01:11:58.106Z,1008.26
2016-06-07T01:12:58.140Z,1008.25
2016-06-07T01:13:58.190Z,1008.25
2016-06-07T01:14:58.224Z,1008.21
2016-06-07T01:15:58.273Z,1008.23
2016-06-07T01:16:58.307Z,1008.23
2016-06-07T01:17:58.357Z,1008.24
2016-06-07T01:18:58.406Z,1008.24
2016-06-07T01:19:58.440Z,1008.26
2016-06-07T01:20:58.475Z,1008.28
2016-06-07T01:21:58.509Z,1008.28
2016-06-07T01:22:58.558Z,1008.28
2016-06-07T01:23:58.592Z,1008.29
2016-06-07T01:24:58.641Z,1008.31
2016-06-07T01:25:58.676Z,1008.29
2016-06-07T01:26:58.725Z,1008.29
2016-06-07T01:27:58.775Z,1008.27
2016-06-07T01:28:58.808Z,1008.28
2016-06-07T01:29:58.874Z,1008.31
2016-06-07T01:30:58.892Z,1008.3
2016-06-07T01:31:58.926Z,1008.33
2016-06-07T01:32:58.975Z,1008.31
2016-06-07T01:33:59.025Z,1008.38
2016-06-07T01:34:59.043Z,1008.36
2016-06-07T01:35:59.094Z,1008.4
2016-06-07T01:36:59.627Z,1008.43
2016-06-07T01:37:59.177Z,1008.43
2016-06-07T01:38:59.210Z,1008.4
2016-06-07T01:39:59.260Z,1008.41
2016-06-07T01:40:59.325Z,1008.38
2016-06-07T01:41:59.344Z,1008.38
2016-06-07T01:42:59.377Z,1008.35
2016-06-07T01:43:59.426Z,1008.39
2016-06-07T01:44:59.460Z,1008.37
2016-06-07T01:45:59.495Z,1008.34
2016-06-07T01:46:59.544Z,1008.39
2016-06-07T01:47:59.582Z,1008.37
2016-06-07T01:48:59.647Z,1008.36
2016-06-07T01:49:59.695Z,1008.38
2016-06-07T01:50:59.760Z,1008.39
2016-06-07T01:51:59.824Z,1008.39
2016-06-07T01:52:59.855Z,1008.37
2016-06-07T01:53:59.910Z,1008.35
2016-06-07T01:54:59.949Z,1008.37
2016-06-07T01:56:00.005Z,1008.36
2016-06-07T01:57:00.044Z,1008.36
2016-06-07T01:58:00.098Z,1008.36
2016-06-07T01:59:00.149Z,1008.35
2016-06-07T02:00:00.185Z,1008.31
2016-06-07T02:01:00.221Z,1008.32
2016-06-07T02:02:00.273Z,1008.3
2016-06-07T02:03:00.308Z,1008.34
2016-06-07T02:04:00.359Z,1008.33
2016-06-07T02:05:00.394Z,1008.34
2016-06-07T02:06:00.506Z,1008.33
2016-06-07T02:07:00.478Z,1008.3
2016-06-07T02:08:00.513Z,1008.35
2016-06-07T02:09:00.563Z,1008.32
2016-06-07T02:10:00.613Z,1008.29
2016-06-07T02:11:00.646Z,1008.3
2016-06-07T02:12:00.682Z,1008.29
2016-06-07T02:13:00.732Z,1008.28
2016-06-07T02:14:00.766Z,1008.3
2016-06-07T02:15:00.815Z,1008.28
2016-06-07T02:16:00.849Z,1008.27
2016-06-07T02:17:00.913Z,1008.28
2016-06-07T02:18:00.933Z,1008.23
2016-06-07T02:19:00.966Z,1008.24
2016-06-07T02:20:01.016Z,1008.28
2016-06-07T02:21:01.065Z,1008.3
2016-06-07T02:22:01.099Z,1008.29
2016-06-07T02:23:01.134Z,1008.28
2016-06-07T02:24:01.168Z,1008.26
2016-06-07T02:25:01.217Z,1008.26
2016-06-07T02:26:01.251Z,1008.31
2016-06-07T02:27:01.301Z,1008.32
2016-06-07T02:28:01.334Z,1008.31
2016-06-07T02:29:01.368Z,1008.28
2016-06-07T02:30:01.417Z,1008.28
2016-06-07T02:31:01.467Z,1008.31
2016-06-07T02:32:01.501Z,1008.35
2016-06-07T02:33:01.536Z,1008.29
2016-06-07T02:34:01.585Z,1008.3
2016-06-07T02:35:01.619Z,1008.31
2016-06-07T02:36:01.669Z,1008.33
2016-06-07T02:37:02.217Z,1008.32
2016-06-07T02:38:01.752Z,1008.37
2016-06-07T02:39:01.786Z,1008.37
2016-06-07T02:40:01.836Z,1008.37
2016-06-07T02:41:01.869Z,1008.36
2016-06-07T02:42:01.903Z,1008.36
2016-06-07T02:43:01.953Z,1008.37
2016-06-07T02:44:01.986Z,1008.38
2016-06-07T02:45:02.021Z,1008.33
2016-06-07T02:46:02.102Z,1008.37
2016-06-07T02:47:02.104Z,1008.36
2016-06-07T02:48:02.154Z,1008.36
2016-06-07T02:49:02.203Z,1008.37
2016-06-07T02:50:02.238Z,1008.35
2016-06-07T02:51:02.272Z,1008.34
2016-06-07T02:52:02.664Z,1008.38
2016-06-07T02:53:02.386Z,1008.37
2016-06-07T02:54:02.388Z,1008.34
2016-06-07T02:55:02.438Z,1008.33
2016-06-07T02:56:02.473Z,1008.36
2016-06-07T02:57:02.521Z,1008.31
2016-06-07T02:58:02.556Z,1008.35
2016-06-07T02:59:02.606Z,1008.33
2016-06-07T03:00:02.640Z,1008.3
2016-06-07T03:01:02.673Z,1008.32
2016-06-07T03:02:02.723Z,1008.3
2016-06-07T03:03:02.756Z,1008.34
2016-06-07T03:04:02.806Z,1008.32
2016-06-07T03:05:02.840Z,1008.3
2016-06-07T03:06:02.874Z,1008.31
2016-06-07T03:07:02.923Z,1008.32
2016-06-07T03:08:02.958Z,1008.34
2016-06-07T03:09:03.008Z,1008.33
2016-06-07T03:10:03.041Z,1008.33
2016-06-07T03:11:03.091Z,1008.3
2016-06-07T03:12:03.124Z,1008.31
2016-06-07T03:13:03.158Z,1008.33
2016-06-07T03:14:03.208Z,1008.33
2016-06-07T03:15:03.257Z,1008.34
2016-06-07T03:16:03.291Z,1008.32
2016-06-07T03:17:03.325Z,1008.35
2016-06-07T03:18:03.375Z,1008.35
2016-06-07T03:19:03.410Z,1008.35
2016-06-07T03:20:03.443Z,1008.38
2016-06-07T03:21:03.493Z,1008.38
2016-06-07T03:22:03.683Z,1008.41
2016-06-07T03:23:03.560Z,1008.42
2016-06-07T03:24:03.610Z,1008.4
2016-06-07T03:25:03.644Z,1008.44
2016-06-07T03:26:03.694Z,1008.45
2016-06-07T03:27:03.727Z,1008.48
2016-06-07T03:28:03.777Z,1008.45
2016-06-07T03:29:03.842Z,1008.47
2016-06-07T03:30:03.845Z,1008.47
2016-06-07T03:31:03.895Z,1008.46
2016-06-07T03:32:03.929Z,1008.5
2016-06-07T03:33:03.978Z,1008.5
2016-06-07T03:34:04.012Z,1008.5
2016-06-07T03:35:04.061Z,1008.52
2016-06-07T03:36:04.095Z,1008.52
2016-06-07T03:37:04.629Z,1008.51
2016-06-07T03:38:04.178Z,1008.53
2016-06-07T03:39:04.213Z,1008.5
2016-06-07T03:40:04.262Z,1008.51
2016-06-07T03:41:04.312Z,1008.52
2016-06-07T03:42:04.346Z,1008.51
2016-06-07T03:43:04.380Z,1008.53
2016-06-07T03:44:04.414Z,1008.55
2016-06-07T03:45:04.463Z,1008.57
2016-06-07T03:46:04.497Z,1008.54
2016-06-07T03:47:04.547Z,1008.57
2016-06-07T03:48:04.580Z,1008.55
2016-06-07T03:49:04.615Z,1008.56
2016-06-07T03:50:04.664Z,1008.58
2016-06-07T03:51:04.699Z,1008.56
2016-06-07T03:52:04.748Z,1008.57
2016-06-07T03:53:04.782Z,1008.54
2016-06-07T03:54:04.863Z,1008.58
2016-06-07T03:55:04.865Z,1008.57
2016-06-07T03:56:04.899Z,1008.56
2016-06-07T03:57:04.948Z,1008.57
2016-06-07T03:58:04.982Z,1008.55
2016-06-07T03:59:05.032Z,1008.56
2016-06-07T04:00:05.066Z,1008.57
2016-06-07T04:01:05.101Z,1008.58
2016-06-07T04:02:05.150Z,1008.59
2016-06-07T04:03:05.184Z,1008.56
2016-06-07T04:04:05.233Z,1008.56
2016-06-07T04:05:05.267Z,1008.64
2016-06-07T04:06:05.317Z,1008.59
2016-06-07T04:07:05.351Z,1008.57
2016-06-07T04:08:05.384Z,1008.62
2016-06-07T04:09:05.434Z,1008.56
2016-06-07T04:10:05.468Z,1008.58
2016-06-07T04:11:05.517Z,1008.57
2016-06-07T04:12:05.567Z,1008.58
2016-06-07T04:13:05.586Z,1008.6
2016-06-07T04:14:05.636Z,1008.56
2016-06-07T04:15:05.669Z,1008.58
2016-06-07T04:16:05.718Z,1008.61
2016-06-07T04:17:05.753Z,1008.61
2016-06-07T04:18:05.803Z,1008.64
2016-06-07T04:19:05.836Z,1008.63
2016-06-07T04:20:05.869Z,1008.65
2016-06-07T04:21:05.919Z,1008.65
2016-06-07T04:22:05.954Z,1008.66
2016-06-07T04:23:06.035Z,1008.64
2016-06-07T04:24:06.038Z,1008.69
2016-06-07T04:25:06.087Z,1008.65
2016-06-07T04:26:06.120Z,1008.7
2016-06-07T04:27:06.171Z,1008.7
2016-06-07T04:28:06.204Z,1008.68
2016-06-07T04:29:06.238Z,1008.7
2016-06-07T04:30:06.287Z,1008.68
2016-06-07T04:31:06.322Z,1008.68
2016-06-07T04:32:06.371Z,1008.7
2016-06-07T04:33:06.404Z,1008.67
2016-06-07T04:34:06.455Z,1008.67
2016-06-07T04:35:06.488Z,1008.67
2016-06-07T04:36:06.523Z,1008.61
2016-06-07T04:37:06.837Z,1008.62
2016-06-07T04:38:06.668Z,1008.61
2016-06-07T04:39:06.655Z,1008.6
2016-06-07T04:40:06.690Z,1008.65
2016-06-07T04:41:06.770Z,1008.68
2016-06-07T04:42:06.773Z,1008.66
2016-06-07T04:43:06.806Z,1008.66
2016-06-07T04:44:06.857Z,1008.67
2016-06-07T04:45:06.905Z,1008.61
2016-06-07T04:46:06.939Z,1008.65
2016-06-07T04:47:06.974Z,1008.65
2016-06-07T04:48:07.024Z,1008.64
2016-06-07T04:49:07.058Z,1008.62
2016-06-07T04:50:07.107Z,1008.64
2016-06-07T04:51:07.141Z,1008.65
2016-06-07T04:52:07.174Z,1008.66
2016-06-07T04:53:07.224Z,1008.64
2016-06-07T04:54:07.258Z,1008.68
2016-06-07T04:55:07.324Z,1008.7
2016-06-07T04:56:07.341Z,1008.7
2016-06-07T04:57:07.391Z,1008.7
2016-06-07T04:58:07.426Z,1008.7
2016-06-07T04:59:07.460Z,1008.72
2016-06-07T05:00:07.509Z,1008.73
2016-06-07T05:01:07.543Z,1008.75
2016-06-07T05:02:07.592Z,1008.71
2016-06-07T05:03:07.626Z,1008.75
2016-06-07T05:04:07.676Z,1008.73
2016-06-07T05:05:07.710Z,1008.73
2016-06-07T05:06:07.760Z,1008.75
2016-06-07T05:07:08.106Z,1008.7
2016-06-07T05:08:07.843Z,1008.69
2016-06-07T05:09:07.876Z,1008.75
2016-06-07T05:10:07.926Z,1008.73
2016-06-07T05:11:07.961Z,1008.76
2016-06-07T05:12:07.994Z,1008.71
2016-06-07T05:13:08.044Z,1008.77
2016-06-07T05:14:08.094Z,1008.76
2016-06-07T05:15:08.128Z,1008.75
2016-06-07T05:16:08.161Z,1008.77
2016-06-07T05:17:08.210Z,1008.76
2016-06-07T05:18:08.261Z,1008.76
2016-06-07T05:19:08.294Z,1008.78
2016-06-07T05:20:08.422Z,1008.78
2016-06-07T05:21:08.377Z,1008.75
2016-06-07T05:22:08.475Z,1008.75
2016-06-07T05:23:08.461Z,1008.78
2016-06-07T05:24:08.511Z,1008.8
2016-06-07T05:25:08.529Z,1008.82
2016-06-07T05:26:08.579Z,1008.82
2016-06-07T05:27:08.613Z,1008.82
2016-06-07T05:28:08.663Z,1008.83
2016-06-07T05:29:08.696Z,1008.81
2016-06-07T05:30:08.745Z,1008.85
2016-06-07T05:31:08.779Z,1008.83
2016-06-07T05:32:08.829Z,1008.85
2016-06-07T05:33:08.879Z,1008.85
2016-06-07T05:34:08.913Z,1008.86
2016-06-07T05:35:08.947Z,1008.83
2016-06-07T05:36:08.996Z,1008.84
2016-06-07T05:37:09.030Z,1008.84
2016-06-07T05:38:09.080Z,1008.85
2016-06-07T05:39:09.114Z,1008.85
2016-06-07T05:40:09.179Z,1008.84
2016-06-07T05:41:09.212Z,1008.87
2016-06-07T05:42:09.247Z,1008.89
2016-06-07T05:43:09.281Z,1008.88
2016-06-07T05:44:09.315Z,1008.91
2016-06-07T05:45:09.364Z,1008.94
2016-06-07T05:46:09.398Z,1008.92
2016-06-07T05:47:09.447Z,1008.94
2016-06-07T05:48:09.497Z,1008.93
2016-06-07T05:49:09.531Z,1008.92
2016-06-07T05:50:09.580Z,1008.96
2016-06-07T05:51:09.614Z,1008.94
2016-06-07T05:52:09.696Z,1008.93
2016-06-07T05:53:10.105Z,1008.94
2016-06-07T05:54:09.733Z,1008.92
2016-06-07T05:55:09.844Z,1008.92
2016-06-07T05:56:09.816Z,1008.96
2016-06-07T05:57:09.866Z,1008.97
2016-06-07T05:58:10.025Z,1008.96
2016-06-07T05:59:09.949Z,1008.96
2016-06-07T06:00:09.998Z,1008.98
2016-06-07T06:01:10.033Z,1008.98
2016-06-07T06:02:10.082Z,1008.99
2016-06-07T06:03:10.116Z,1008.98
2016-06-07T06:04:10.149Z,1008.94
2016-06-07T06:05:10.199Z,1008.96
2016-06-07T06:06:10.234Z,1008.95
2016-06-07T06:07:10.987Z,1008.91
2016-06-07T06:08:10.332Z,1008.94
2016-06-07T06:09:10.382Z,1008.99
2016-06-07T06:10:10.401Z,1009
2016-06-07T06:11:10.450Z,1009.04
2016-06-07T06:12:10.484Z,1009.02
2016-06-07T06:13:10.581Z,1009.03
2016-06-07T06:14:10.567Z,1009.05
2016-06-07T06:15:10.633Z,1009.04
2016-06-07T06:16:10.650Z,1009.05
2016-06-07T06:17:10.701Z,1009.09
2016-06-07T06:18:10.734Z,1009.05
2016-06-07T06:19:10.815Z,1009.06
2016-06-07T06:20:10.817Z,1009.08
2016-06-07T06:21:10.867Z,1009.05
2016-06-07T06:22:12.620Z,1009.08
2016-06-07T06:23:13.389Z,1009.09
2016-06-07T06:24:14.063Z,1009.07
2016-06-07T06:25:11.206Z,1009.05
2016-06-07T06:26:11.069Z,1009.07
2016-06-07T06:27:11.774Z,1009.08
2016-06-07T06:28:12.246Z,1009.07
2016-06-07T06:29:11.201Z,1009.1
2016-06-07T06:30:11.783Z,1009.12
2016-06-07T06:31:12.207Z,1009.11
2016-06-07T06:32:13.678Z,1009.15
2016-06-07T06:33:12.244Z,1009.1
2016-06-07T06:34:11.418Z,1009.12
2016-06-07T06:35:11.467Z,1009.11
2016-06-07T06:36:11.829Z,1009.17
2016-06-07T06:37:11.910Z,1009.17
2016-06-07T06:38:12.929Z,1009.15
2016-06-07T06:39:11.618Z,1009.17
2016-06-07T06:40:11.668Z,1009.14
2016-06-07T06:41:11.702Z,1009.13
2016-06-07T06:42:13.877Z,1009.14
2016-06-07T06:43:11.787Z,1009.14
2016-06-07T06:44:13.773Z,1009.12
2016-06-07T06:45:14.119Z,1009.17
2016-06-07T06:46:11.920Z,1009.15
2016-06-07T06:47:11.984Z,1009.14
2016-06-07T06:48:12.002Z,1009.15
2016-06-07T06:49:12.068Z,1009.18
2016-06-07T06:50:13.227Z,1009.2
2016-06-07T06:51:12.136Z,1009.17
2016-06-07T06:52:12.169Z,1009.19
2016-06-07T06:53:12.220Z,1009.17
2016-06-07T06:54:14.831Z,1009.2
2016-06-07T06:55:12.302Z,1009.18
2016-06-07T06:56:12.337Z,1009.15
2016-06-07T06:57:12.386Z,1009.16
2016-06-07T06:58:13.311Z,1009.19
2016-06-07T06:59:12.844Z,1009.16
2016-06-07T07:00:12.518Z,1009.19
2016-06-07T07:01:14.663Z,1009.22
2016-06-07T07:02:12.603Z,1009.21
2016-06-07T07:03:12.715Z,1009.21
2016-06-07T07:04:12.702Z,1009.19
2016-06-07T07:05:12.799Z,1009.2
2016-06-07T07:06:12.770Z,1009.19
2016-06-07T07:07:13.116Z,1009.21
2016-06-07T07:08:13.493Z,1009.23
2016-06-07T07:09:12.903Z,1009.2
2016-06-07T07:10:12.937Z,1009.22
2016-06-07T07:11:13.158Z,1009.21
2016-06-07T07:12:13.067Z,1009.26
2016-06-07T07:13:13.070Z,1009.23
2016-06-07T07:14:13.104Z,1009.22
2016-06-07T07:15:13.169Z,1009.25
2016-06-07T07:16:13.312Z,1009.23
2016-06-07T07:17:13.393Z,1009.21
2016-06-07T07:18:13.270Z,1009.29
2016-06-07T07:19:13.336Z,1009.26
2016-06-07T07:20:13.400Z,1009.21
2016-06-07T07:21:13.420Z,1009.21
2016-06-07T07:22:13.531Z,1009.19
2016-06-07T07:23:13.565Z,1009.21
2016-06-07T07:24:13.537Z,1009.2
2016-06-07T07:25:13.617Z,1009.18
2016-06-07T07:26:13.620Z,1009.22
2016-06-07T07:27:13.685Z,1009.22
2016-06-07T07:28:13.704Z,1009.16
2016-06-07T07:29:13.832Z,1009.19
2016-06-07T07:30:13.835Z,1009.21
2016-06-07T07:31:13.837Z,1009.23
2016-06-07T07:32:14.058Z,1009.26
2016-06-07T07:33:13.999Z,1009.26
2016-06-07T07:34:14.142Z,1009.25
2016-06-07T07:35:14.004Z,1009.25
2016-06-07T07:36:14.132Z,1009.26
2016-06-07T07:37:14.354Z,1009.29
2016-06-07T07:38:14.184Z,1009.27
2016-06-07T07:39:14.170Z,1009.3
2016-06-07T07:40:14.220Z,1009.3
2016-06-07T07:41:14.427Z,1009.3
2016-06-07T07:42:14.445Z,1009.28
2016-06-07T07:43:14.354Z,1009.28
2016-06-07T07:44:14.387Z,1009.28
2016-06-07T07:45:14.437Z,1009.25
2016-06-07T07:46:14.486Z,1009.24
2016-06-07T07:47:14.537Z,1009.21
2016-06-07T07:48:14.570Z,1009.22
2016-06-07T07:49:14.603Z,1009.23
2016-06-07T07:50:14.653Z,1009.22
2016-06-07T07:51:14.766Z,1009.2
2016-06-07T07:52:14.769Z,1009.19
2016-06-07T07:53:15.052Z,1009.2
2016-06-07T07:54:15.024Z,1009.2
2016-06-07T07:55:14.995Z,1009.18
2016-06-07T07:56:15.138Z,1009.17
2016-06-07T07:57:14.953Z,1009.13
2016-06-07T07:58:15.003Z,1009.16
2016-06-07T07:59:15.084Z,1009.18
2016-06-07T08:00:15.086Z,1009.17
2016-06-07T08:01:15.136Z,1009.17
2016-06-07T08:02:15.171Z,1009.17
2016-06-07T08:03:15.219Z,1009.15
2016-06-07T08:04:15.269Z,1009.13
2016-06-07T08:05:15.303Z,1009.14
2016-06-07T08:06:15.571Z,1009.15
2016-06-07T08:07:16.278Z,1009.16
2016-06-07T08:08:16.171Z,1009.18
2016-06-07T08:09:15.518Z,1009.18
2016-06-07T08:10:15.520Z,1009.22
2016-06-07T08:11:15.570Z,1009.21
2016-06-07T08:12:15.619Z,1009.19
2016-06-07T08:13:15.653Z,1009.15
2016-06-07T08:14:15.874Z,1009.23
2016-06-07T08:15:15.736Z,1009.24
2016-06-07T08:16:15.801Z,1009.17
2016-06-07T08:17:15.836Z,1009.21
2016-06-07T08:18:16.417Z,1009.2
2016-06-07T08:19:15.920Z,1009.19
2016-06-07T08:20:16.109Z,1009.14
2016-06-07T08:21:16.142Z,1009.18
2016-06-07T08:22:16.927Z,1009.17
2016-06-07T08:23:16.556Z,1009.17
2016-06-07T08:24:16.448Z,1009.2
2016-06-07T08:25:16.450Z,1009.19
2016-06-07T08:26:16.250Z,1009.16
2016-06-07T08:27:16.269Z,1009.17
2016-06-07T08:28:16.349Z,1009.16
2016-06-07T08:29:16.400Z,1009.19
2016-06-07T08:30:16.433Z,1009.2
2016-06-07T08:31:16.467Z,1009.21
2016-06-07T08:32:16.641Z,1009.21
2016-06-07T08:33:16.582Z,1009.21
2016-06-07T08:34:16.599Z,1009.24
2016-06-07T08:35:16.805Z,1009.22
2016-06-07T08:36:16.747Z,1009.19
2016-06-07T08:37:16.905Z,1009.2
2016-06-07T08:38:16.767Z,1009.23
2016-06-07T08:39:16.816Z,1009.25
2016-06-07T08:40:18.068Z,1009.24
2016-06-07T08:41:16.947Z,1009.23
2016-06-07T08:42:17.028Z,1009.26
2016-06-07T08:43:16.984Z,1009.26
2016-06-07T08:44:17.017Z,1009.2
2016-06-07T08:45:17.082Z,1009.25
2016-06-07T08:46:17.101Z,1009.27
2016-06-07T08:47:17.167Z,1009.26
2016-06-07T08:48:17.684Z,1009.21
2016-06-07T08:49:17.515Z,1009.19
2016-06-07T08:50:17.549Z,1009.24
2016-06-07T08:51:17.334Z,1009.24
2016-06-07T08:52:17.383Z,1009.23
2016-06-07T08:53:17.589Z,1009.21
2016-06-07T08:54:17.653Z,1009.23
2016-06-07T08:55:17.625Z,1009.2
2016-06-07T08:56:17.581Z,1009.2
2016-06-07T08:57:17.662Z,1009.21
2016-06-07T08:58:17.680Z,1009.21
2016-06-07T08:59:17.683Z,1009.25
2016-06-07T09:00:17.717Z,1009.23
2016-06-07T09:01:17.766Z,1009.2
2016-06-07T09:02:17.816Z,1009.22
2016-06-07T09:03:17.850Z,1009.24
2016-06-07T09:04:17.899Z,1009.21
2016-06-07T09:05:17.949Z,1009.17
2016-06-07T09:06:18.139Z,1009.18
2016-06-07T09:07:18.532Z,1009.19
2016-06-07T09:08:18.519Z,1009.19
2016-06-07T09:09:18.429Z,1009.2
2016-06-07T09:10:18.259Z,1009.17
2016-06-07T09:11:18.747Z,1009.15
2016-06-07T09:12:18.937Z,1009.21
2016-06-07T09:13:18.377Z,1009.2
2016-06-07T09:14:18.520Z,1009.23
2016-06-07T09:15:18.507Z,1009.2
2016-06-07T09:16:18.666Z,1009.2
2016-06-07T09:17:19.043Z,1009.18
2016-06-07T09:18:18.937Z,1009.19
2016-06-07T09:19:18.846Z,1009.17
2016-06-07T09:20:19.005Z,1009.2
2016-06-07T09:21:18.821Z,1009.22
2016-06-07T09:22:19.386Z,1009.23
2016-06-07T09:23:19.075Z,1009.24
2016-06-07T09:24:18.859Z,1009.27
2016-06-07T09:25:18.862Z,1009.26
2016-06-07T09:26:19.068Z,1009.24
2016-06-07T09:27:19.446Z,1009.23
2016-06-07T09:28:19.152Z,1009.25
2016-06-07T09:29:19.185Z,1009.24
2016-06-07T09:30:19.250Z,1009.22
2016-06-07T09:31:19.582Z,1009.27
2016-06-07T09:32:19.225Z,1009.2
2016-06-07T09:33:19.525Z,1009.25
2016-06-07T09:34:19.465Z,1009.28
2016-06-07T09:35:19.436Z,1009.31
2016-06-07T09:36:19.657Z,1009.25
2016-06-07T09:37:19.707Z,1009.19
2016-06-07T09:38:19.647Z,1009.23
2016-06-07T09:39:19.821Z,1009.24
2016-06-07T09:40:19.777Z,1009.2
2016-06-07T09:41:19.983Z,1009.22
2016-06-07T09:42:19.705Z,1009.23
2016-06-07T09:43:19.785Z,1009.15
2016-06-07T09:44:19.726Z,1009.16
2016-06-07T09:45:19.853Z,1009.14
2016-06-07T09:46:19.966Z,1009.16
2016-06-07T09:47:19.874Z,1009.16
2016-06-07T09:48:20.456Z,1009.15
2016-06-07T09:49:20.880Z,1009.12
2016-06-07T09:50:20.507Z,1009.16
2016-06-07T09:51:20.745Z,1009.19
2016-06-07T09:52:20.545Z,1009.18
2016-06-07T09:53:20.406Z,1009.19
2016-06-07T09:54:21.003Z,1009.21
2016-06-07T09:55:21.037Z,1009.2
2016-06-07T09:56:21.242Z,1009.17
2016-06-07T09:57:21.167Z,1009.19
2016-06-07T09:58:21.342Z,1009.16
2016-06-07T09:59:21.110Z,1009.14
2016-06-07T10:00:20.972Z,1009.16
2016-06-07T10:01:21.272Z,1009.17
2016-06-07T10:02:21.352Z,1009.15
2016-06-07T10:03:21.042Z,1009.15
2016-06-07T10:04:22.030Z,1009.11
2016-06-07T10:05:21.611Z,1009.1
2016-06-07T10:06:24.097Z,1009.14
2016-06-07T10:07:21.319Z,1009.13
2016-06-07T10:08:21.744Z,1009.13
2016-06-07T10:09:21.294Z,1009.16
2016-06-07T10:10:21.624Z,1009.18
2016-06-07T10:11:21.704Z,1009.14
2016-06-07T10:12:21.504Z,1009.18
2016-06-07T10:13:21.632Z,1009.18
2016-06-07T10:14:21.541Z,1009.18
2016-06-07T10:15:21.450Z,1009.18
2016-06-07T10:16:21.531Z,1009.12
2016-06-07T10:17:21.549Z,1009.15
2016-06-07T10:18:37.130Z,1009.13
2016-06-07T10:19:21.724Z,1009.14
2016-06-07T10:20:21.791Z,1009.13
2016-06-07T10:21:21.730Z,1009.14
2016-06-07T10:22:22.123Z,1009.16
2016-06-07T10:23:22.002Z,1009.16
2016-06-07T10:24:22.066Z,1009.14
2016-06-07T10:25:22.006Z,1009.14
2016-06-07T10:26:22.463Z,1009.16
2016-06-07T10:27:22.496Z,1009.13
2016-06-07T10:28:22.296Z,1009.14
2016-06-07T10:29:22.235Z,1009.17
2016-06-07T10:30:22.238Z,1009.18
2016-06-07T10:31:22.100Z,1009.3
2016-06-07T10:32:22.448Z,1009.46
2016-06-07T10:33:25.403Z,1009.6
2016-06-07T10:34:22.062Z,1009.67
2016-06-07T10:35:22.893Z,1009.75
2016-06-07T10:36:23.036Z,1009.77
2016-06-07T10:37:22.398Z,1009.78
2016-06-07T10:38:23.197Z,1009.79
2016-06-07T10:39:23.795Z,1009.78
2016-06-07T10:40:22.875Z,1009.7
2016-06-07T10:41:25.581Z,1009.74
2016-06-07T10:42:22.771Z,1009.74
2016-06-07T10:43:22.836Z,1009.72
2016-06-07T10:44:22.948Z,1009.64
2016-06-07T10:45:22.811Z,1009.64
2016-06-07T10:46:23.047Z,1009.55
2016-06-07T10:47:23.191Z,1009.48
2016-06-07T10:48:22.974Z,1009.53
2016-06-07T10:49:23.275Z,1009.57
2016-06-07T10:50:23.230Z,1009.57
2016-06-07T10:51:23.405Z,1009.53
2016-06-07T10:52:23.282Z,1009.4
2016-06-07T10:53:23.113Z,1009.46
2016-06-07T10:54:23.287Z,1009.54
2016-06-07T10:55:23.397Z,1009.56
2016-06-07T10:56:23.415Z,1009.4
2016-06-07T10:57:23.385Z,1009.45
2016-06-07T10:58:23.575Z,1009.57
2016-06-07T10:59:23.624Z,1009.58
2016-06-07T11:00:23.399Z,1009.5
2016-06-07T11:01:23.875Z,1009.5
2016-06-07T11:02:23.649Z,1009.4
2016-06-07T11:03:23.783Z,1009.28
2016-06-07T11:04:23.650Z,1009.38
2016-06-07T11:05:24.358Z,1009.4
2016-06-07T11:06:23.753Z,1009.3
2016-06-07T11:07:23.914Z,1009.37
2016-06-07T11:08:23.872Z,1009.49
2016-06-07T11:09:24.018Z,1009.52
2016-06-07T11:10:24.005Z,1009.58
2016-06-07T11:11:24.274Z,1009.57
2016-06-07T11:12:24.106Z,1009.55
2016-06-07T11:13:24.188Z,1009.49
2016-06-07T11:14:24.221Z,1009.56
2016-06-07T11:15:24.304Z,1009.5
2016-06-07T11:16:24.400Z,1009.44
2016-06-07T11:17:24.481Z,1009.5
2016-06-07T11:18:24.484Z,1009.44
2016-06-07T11:19:24.519Z,1009.48
2016-06-07T11:20:24.600Z,1009.43
2016-06-07T11:21:24.650Z,1009.31
2016-06-07T11:22:24.699Z,1009.38
2016-06-07T11:23:24.764Z,1009.45
2016-06-07T11:24:24.829Z,1009.4
2016-06-07T11:25:24.878Z,1009.42
2016-06-07T11:26:24.928Z,1009.36
2016-06-07T11:27:25.024Z,1009.4
2016-06-07T11:28:25.044Z,1009.5
2016-06-07T11:29:25.108Z,1009.41
2016-06-07T11:30:25.174Z,1009.44
2016-06-07T11:31:25.238Z,1009.35
2016-06-07T11:32:25.289Z,1009.19
2016-06-07T11:33:25.354Z,1009.29
2016-06-07T11:34:25.435Z,1009.35
2016-06-07T11:35:25.468Z,1009.3
2016-06-07T11:36:25.518Z,1009.27
2016-06-07T11:37:25.582Z,1009.36
2016-06-07T11:38:26.492Z,1009.39
2016-06-07T11:39:25.698Z,1009.42
2016-06-07T11:40:25.762Z,1009.36
2016-06-07T11:41:25.812Z,1009.37
2016-06-07T11:42:25.878Z,1009.4
2016-06-07T11:43:25.927Z,1009.42
2016-06-07T11:44:25.993Z,1009.46
2016-06-07T11:45:26.057Z,1009.43
2016-06-07T11:46:26.107Z,1009.43
2016-06-07T11:47:26.172Z,1009.45
2016-06-07T11:48:26.222Z,1009.44
2016-06-07T11:49:26.287Z,1009.42
2016-06-07T11:50:26.368Z,1009.38
2016-06-07T11:51:26.574Z,1009.37
2016-06-07T11:52:26.467Z,1009.35
2016-06-07T11:53:26.533Z,1009.34
2016-06-07T11:54:26.816Z,1009.34
2016-06-07T11:55:26.647Z,1009.36
2016-06-07T11:56:26.868Z,1009.35
2016-06-07T11:57:26.762Z,1009.31
2016-06-07T11:58:27.077Z,1009.26
2016-06-07T11:59:26.908Z,1009.2
2016-06-07T12:00:26.958Z,1009.22
2016-06-07T12:01:27.163Z,1009.21
2016-06-07T12:02:27.213Z,1009.2
2016-06-07T12:03:27.324Z,1009.13
2016-06-07T12:04:27.187Z,1009.2
2016-06-07T12:05:27.361Z,1009.23
2016-06-07T12:06:27.302Z,1009.2
2016-06-07T12:07:27.571Z,1009.24
2016-06-07T12:08:27.416Z,1009.23
2016-06-07T12:09:27.482Z,1009.23